sensor_id;sensor_type;location;lat;lon;timestamp;temperature;humidity
40828;DHT22;26549;50.918;5.338;2022-11-20T00:00:48;5.90;99.90
40828;DHT22;26549;50.918;5.338;2022-11-20T00:03:14;5.90;99.90
40828;DHT22;26549;50.918;5.338;2022-11-20T00:05:39;5.70;99.90
40828;DHT22;26549;50.918;5.338;2022-11-20T00:08:05;5.60;99.90
40828;DHT22;26549;50.918;5.338;2022-11-20T00:10:31;5.90;99.90
40828;DHT22;26549;50.918;5.338;2022-11-20T00:13:00;5.90;99.90
40828;DHT22;26549;50.918;5.338;2022-11-20T00:15:25;5.90;99.90
40828;DHT22;26549;50.918;5.338;2022-11-20T00:17:51;6.00;99.90
40828;DHT22;26549;50.918;5.338;2022-11-20T00:20:17;6.10;99.90
40828;DHT22;26549;50.918;5.338;2022-11-20T00:22:43;6.10;99.90
40828;DHT22;26549;50.918;5.338;2022-11-20T00:25:08;6.10;99.90
40828;DHT22;26549;50.918;5.338;2022-11-20T00:27:34;6.10;99.90
40828;DHT22;26549;50.918;5.338;2022-11-20T00:30:00;6.00;99.90
40828;DHT22;26549;50.918;5.338;2022-11-20T00:32:26;6.10;99.90
40828;DHT22;26549;50.918;5.338;2022-11-20T00:34:52;6.10;99.90
40828;DHT22;26549;50.918;5.338;2022-11-20T00:37:17;6.10;99.90
40828;DHT22;26549;50.918;5.338;2022-11-20T00:39:43;6.00;99.90
40828;DHT22;26549;50.918;5.338;2022-11-20T00:42:09;6.00;99.90
40828;DHT22;26549;50.918;5.338;2022-11-20T00:44:35;6.20;99.90
40828;DHT22;26549;50.918;5.338;2022-11-20T00:47:01;6.20;99.90
40828;DHT22;26549;50.918;5.338;2022-11-20T00:49:27;6.30;99.90
40828;DHT22;26549;50.918;5.338;2022-11-20T00:51:53;6.20;99.90
40828;DHT22;26549;50.918;5.338;2022-11-20T00:54:19;6.20;99.90
40828;DHT22;26549;50.918;5.338;2022-11-20T00:56:45;6.10;99.90
40828;DHT22;26549;50.918;5.338;2022-11-20T00:59:11;6.10;99.90
40828;DHT22;26549;50.918;5.338;2022-11-20T01:01:37;6.10;99.90
40828;DHT22;26549;50.918;5.338;2022-11-20T01:04:02;6.00;99.90
40828;DHT22;26549;50.918;5.338;2022-11-20T01:06:33;6.10;99.90
40828;DHT22;26549;50.918;5.338;2022-11-20T01:09:10;6.30;99.90
40828;DHT22;26549;50.918;5.338;2022-11-20T01:11:39;6.20;99.90
40828;DHT22;26549;50.918;5.338;2022-11-20T01:14:09;6.00;99.90
40828;DHT22;26549;50.918;5.338;2022-11-20T01:16:39;6.00;99.90
40828;DHT22;26549;50.918;5.338;2022-11-20T01:19:09;6.10;99.90
40828;DHT22;26549;50.918;5.338;2022-11-20T01:21:40;6.30;99.90
40828;DHT22;26549;50.918;5.338;2022-11-20T01:24:10;6.40;99.90
40828;DHT22;26549;50.918;5.338;2022-11-20T01:26:38;6.50;99.90
40828;DHT22;26549;50.918;5.338;2022-11-20T01:29:04;6.60;99.90
40828;DHT22;26549;50.918;5.338;2022-11-20T01:31:33;6.40;99.90
40828;DHT22;26549;50.918;5.338;2022-11-20T01:34:05;6.40;99.90
40828;DHT22;26549;50.918;5.338;2022-11-20T01:36:32;6.50;99.90
40828;DHT22;26549;50.918;5.338;2022-11-20T01:39:00;6.60;99.90
40828;DHT22;26549;50.918;5.338;2022-11-20T01:41:29;6.60;99.90
40828;DHT22;26549;50.918;5.338;2022-11-20T01:44:16;6.70;99.90
40828;DHT22;26549;50.918;5.338;2022-11-20T01:47:03;6.70;99.90
40828;DHT22;26549;50.918;5.338;2022-11-20T01:49:45;6.70;99.90
40828;DHT22;26549;50.918;5.338;2022-11-20T01:52:19;6.70;99.90
40828;DHT22;26549;50.918;5.338;2022-11-20T01:55:07;6.50;99.90
40828;DHT22;26549;50.918;5.338;2022-11-20T01:57:35;6.40;99.90
40828;DHT22;26549;50.918;5.338;2022-11-20T02:00:10;6.40;99.90
40828;DHT22;26549;50.918;5.338;2022-11-20T02:02:37;6.30;99.90
40828;DHT22;26549;50.918;5.338;2022-11-20T02:05:20;6.40;99.90
40828;DHT22;26549;50.918;5.338;2022-11-20T02:07:48;6.30;99.90
40828;DHT22;26549;50.918;5.338;2022-11-20T02:10:15;6.20;99.90
40828;DHT22;26549;50.918;5.338;2022-11-20T02:12:41;6.30;99.90
40828;DHT22;26549;50.918;5.338;2022-11-20T02:15:25;6.40;99.90
40828;DHT22;26549;50.918;5.338;2022-11-20T02:17:51;6.50;99.90
40828;DHT22;26549;50.918;5.338;2022-11-20T02:20:17;6.50;99.90
40828;DHT22;26549;50.918;5.338;2022-11-20T02:25:33;6.40;99.90
40828;DHT22;26549;50.918;5.338;2022-11-20T02:27:59;6.50;99.90
40828;DHT22;26549;50.918;5.338;2022-11-20T02:30:25;6.60;99.90
40828;DHT22;26549;50.918;5.338;2022-11-20T02:32:51;6.50;99.90
40828;DHT22;26549;50.918;5.338;2022-11-20T02:35:39;6.40;99.90
40828;DHT22;26549;50.918;5.338;2022-11-20T02:38:05;6.50;99.90
40828;DHT22;26549;50.918;5.338;2022-11-20T02:40:30;6.50;99.90
40828;DHT22;26549;50.918;5.338;2022-11-20T02:42:56;6.30;99.90
40828;DHT22;26549;50.918;5.338;2022-11-20T02:45:23;6.20;99.90
40828;DHT22;26549;50.918;5.338;2022-11-20T02:47:50;6.20;99.90
40828;DHT22;26549;50.918;5.338;2022-11-20T02:50:16;6.30;99.90
40828;DHT22;26549;50.918;5.338;2022-11-20T02:52:42;6.20;99.90
40828;DHT22;26549;50.918;5.338;2022-11-20T02:55:08;6.20;99.90
40828;DHT22;26549;50.918;5.338;2022-11-20T02:57:34;6.10;99.90
40828;DHT22;26549;50.918;5.338;2022-11-20T03:00:00;6.20;99.90
40828;DHT22;26549;50.918;5.338;2022-11-20T03:02:25;6.10;99.90
40828;DHT22;26549;50.918;5.338;2022-11-20T03:04:51;6.10;99.90
40828;DHT22;26549;50.918;5.338;2022-11-20T03:07:17;6.30;99.90
40828;DHT22;26549;50.918;5.338;2022-11-20T03:09:43;6.40;99.90
40828;DHT22;26549;50.918;5.338;2022-11-20T03:12:08;6.40;99.90
40828;DHT22;26549;50.918;5.338;2022-11-20T03:14:34;6.40;99.90
40828;DHT22;26549;50.918;5.338;2022-11-20T03:17:00;6.40;99.90
40828;DHT22;26549;50.918;5.338;2022-11-20T03:19:26;6.50;99.90
40828;DHT22;26549;50.918;5.338;2022-11-20T03:21:52;6.50;99.90
40828;DHT22;26549;50.918;5.338;2022-11-20T03:24:17;6.40;99.90
40828;DHT22;26549;50.918;5.338;2022-11-20T03:26:43;6.50;99.90
40828;DHT22;26549;50.918;5.338;2022-11-20T03:29:09;6.50;99.90
40828;DHT22;26549;50.918;5.338;2022-11-20T03:31:37;6.60;99.90
40828;DHT22;26549;50.918;5.338;2022-11-20T03:34:04;6.60;99.90
40828;DHT22;26549;50.918;5.338;2022-11-20T03:36:30;6.60;99.90
40828;DHT22;26549;50.918;5.338;2022-11-20T03:38:57;6.60;99.90
40828;DHT22;26549;50.918;5.338;2022-11-20T03:41:28;6.50;99.90
40828;DHT22;26549;50.918;5.338;2022-11-20T03:43:59;6.50;99.90
40828;DHT22;26549;50.918;5.338;2022-11-20T03:46:25;6.40;99.90
40828;DHT22;26549;50.918;5.338;2022-11-20T03:48:51;6.40;99.90
40828;DHT22;26549;50.918;5.338;2022-11-20T03:51:26;6.20;99.90
40828;DHT22;26549;50.918;5.338;2022-11-20T03:53:54;6.30;99.90
40828;DHT22;26549;50.918;5.338;2022-11-20T03:56:24;6.40;99.90
40828;DHT22;26549;50.918;5.338;2022-11-20T03:58:50;6.50;99.90
40828;DHT22;26549;50.918;5.338;2022-11-20T04:01:21;6.50;99.90
40828;DHT22;26549;50.918;5.338;2022-11-20T04:03:48;6.50;99.90
40828;DHT22;26549;50.918;5.338;2022-11-20T04:06:22;6.60;99.90
40828;DHT22;26549;50.918;5.338;2022-11-20T04:08:48;6.50;99.90
40828;DHT22;26549;50.918;5.338;2022-11-20T04:11:40;6.50;99.90
40828;DHT22;26549;50.918;5.338;2022-11-20T04:14:06;6.40;99.90
40828;DHT22;26549;50.918;5.338;2022-11-20T04:16:34;6.40;99.90
40828;DHT22;26549;50.918;5.338;2022-11-20T04:19:03;6.30;99.90
40828;DHT22;26549;50.918;5.338;2022-11-20T04:21:30;6.40;99.90
40828;DHT22;26549;50.918;5.338;2022-11-20T04:23:57;6.20;99.90
40828;DHT22;26549;50.918;5.338;2022-11-20T04:26:24;6.10;99.90
40828;DHT22;26549;50.918;5.338;2022-11-20T04:28:51;6.10;99.90
40828;DHT22;26549;50.918;5.338;2022-11-20T04:31:19;6.20;99.90
40828;DHT22;26549;50.918;5.338;2022-11-20T04:33:46;6.30;99.90
40828;DHT22;26549;50.918;5.338;2022-11-20T04:36:14;6.20;99.90
40828;DHT22;26549;50.918;5.338;2022-11-20T04:38:40;6.10;99.90
40828;DHT22;26549;50.918;5.338;2022-11-20T04:41:08;6.20;99.90
40828;DHT22;26549;50.918;5.338;2022-11-20T04:43:35;6.30;99.90
40828;DHT22;26549;50.918;5.338;2022-11-20T04:46:01;6.30;99.90
40828;DHT22;26549;50.918;5.338;2022-11-20T04:48:29;6.30;99.90
40828;DHT22;26549;50.918;5.338;2022-11-20T04:50:55;6.20;99.90
40828;DHT22;26549;50.918;5.338;2022-11-20T04:53:22;6.20;99.90
40828;DHT22;26549;50.918;5.338;2022-11-20T04:55:48;6.30;99.90
40828;DHT22;26549;50.918;5.338;2022-11-20T04:58:15;6.40;99.90
40828;DHT22;26549;50.918;5.338;2022-11-20T05:00:41;6.30;99.90
40828;DHT22;26549;50.918;5.338;2022-11-20T05:03:08;6.50;99.90
40828;DHT22;26549;50.918;5.338;2022-11-20T05:05:34;6.40;99.90
40828;DHT22;26549;50.918;5.338;2022-11-20T05:08:00;6.50;99.90
40828;DHT22;26549;50.918;5.338;2022-11-20T05:10:26;6.50;99.90
40828;DHT22;26549;50.918;5.338;2022-11-20T05:12:52;6.30;99.90
40828;DHT22;26549;50.918;5.338;2022-11-20T05:15:19;6.50;99.90
40828;DHT22;26549;50.918;5.338;2022-11-20T05:17:49;6.50;99.90
40828;DHT22;26549;50.918;5.338;2022-11-20T05:20:15;6.50;99.90
40828;DHT22;26549;50.918;5.338;2022-11-20T05:22:41;6.50;99.90
40828;DHT22;26549;50.918;5.338;2022-11-20T05:25:07;6.50;99.90
40828;DHT22;26549;50.918;5.338;2022-11-20T05:27:33;6.30;99.90
40828;DHT22;26549;50.918;5.338;2022-11-20T05:29:59;6.40;99.90
40828;DHT22;26549;50.918;5.338;2022-11-20T05:32:24;6.40;99.90
40828;DHT22;26549;50.918;5.338;2022-11-20T05:34:52;6.40;99.90
40828;DHT22;26549;50.918;5.338;2022-11-20T05:37:18;6.60;99.90
40828;DHT22;26549;50.918;5.338;2022-11-20T05:39:44;6.50;99.90
40828;DHT22;26549;50.918;5.338;2022-11-20T05:42:09;6.50;99.90
40828;DHT22;26549;50.918;5.338;2022-11-20T05:44:54;6.60;99.90
40828;DHT22;26549;50.918;5.338;2022-11-20T05:47:20;6.40;99.90
40828;DHT22;26549;50.918;5.338;2022-11-20T05:49:46;6.50;99.90
40828;DHT22;26549;50.918;5.338;2022-11-20T05:52:13;6.60;99.90
40828;DHT22;26549;50.918;5.338;2022-11-20T05:54:38;6.40;99.90
40828;DHT22;26549;50.918;5.338;2022-11-20T05:57:04;6.40;99.90
40828;DHT22;26549;50.918;5.338;2022-11-20T05:59:30;6.50;99.90
40828;DHT22;26549;50.918;5.338;2022-11-20T06:01:55;6.50;99.90
40828;DHT22;26549;50.918;5.338;2022-11-20T06:04:21;6.30;99.90
40828;DHT22;26549;50.918;5.338;2022-11-20T06:06:48;6.30;99.90
40828;DHT22;26549;50.918;5.338;2022-11-20T06:09:13;6.30;99.90
40828;DHT22;26549;50.918;5.338;2022-11-20T06:11:39;6.30;99.90
40828;DHT22;26549;50.918;5.338;2022-11-20T06:14:06;6.20;99.90
40828;DHT22;26549;50.918;5.338;2022-11-20T06:16:34;6.30;99.90
40828;DHT22;26549;50.918;5.338;2022-11-20T06:19:00;6.40;99.90
40828;DHT22;26549;50.918;5.338;2022-11-20T06:21:26;6.30;99.90
40828;DHT22;26549;50.918;5.338;2022-11-20T06:23:52;6.20;99.90
40828;DHT22;26549;50.918;5.338;2022-11-20T06:26:23;6.30;99.90
40828;DHT22;26549;50.918;5.338;2022-11-20T06:28:50;6.40;99.90
40828;DHT22;26549;50.918;5.338;2022-11-20T06:31:18;6.40;99.90
40828;DHT22;26549;50.918;5.338;2022-11-20T06:33:45;6.60;99.90
40828;DHT22;26549;50.918;5.338;2022-11-20T06:39:32;6.70;99.90
40828;DHT22;26549;50.918;5.338;2022-11-20T06:41:58;6.60;99.90
40828;DHT22;26549;50.918;5.338;2022-11-20T06:44:24;6.60;99.90
40828;DHT22;26549;50.918;5.338;2022-11-20T06:46:49;6.70;99.90
40828;DHT22;26549;50.918;5.338;2022-11-20T06:49:15;6.70;99.90
40828;DHT22;26549;50.918;5.338;2022-11-20T06:51:43;6.70;99.90
40828;DHT22;26549;50.918;5.338;2022-11-20T06:54:09;6.60;99.90
40828;DHT22;26549;50.918;5.338;2022-11-20T06:56:35;6.70;99.90
40828;DHT22;26549;50.918;5.338;2022-11-20T06:59:05;6.60;99.90
40828;DHT22;26549;50.918;5.338;2022-11-20T07:01:31;6.70;99.90
40828;DHT22;26549;50.918;5.338;2022-11-20T07:03:57;6.60;99.90
40828;DHT22;26549;50.918;5.338;2022-11-20T07:06:23;6.70;99.90
40828;DHT22;26549;50.918;5.338;2022-11-20T07:08:51;6.80;99.90
40828;DHT22;26549;50.918;5.338;2022-11-20T07:11:17;6.80;99.90
40828;DHT22;26549;50.918;5.338;2022-11-20T07:13:43;6.90;99.90
40828;DHT22;26549;50.918;5.338;2022-11-20T07:16:09;6.90;99.90
40828;DHT22;26549;50.918;5.338;2022-11-20T07:18:35;6.80;99.90
40828;DHT22;26549;50.918;5.338;2022-11-20T07:21:04;6.80;99.90
40828;DHT22;26549;50.918;5.338;2022-11-20T07:23:30;6.60;99.90
40828;DHT22;26549;50.918;5.338;2022-11-20T07:25:56;6.60;99.90
40828;DHT22;26549;50.918;5.338;2022-11-20T07:28:23;6.60;99.90
40828;DHT22;26549;50.918;5.338;2022-11-20T07:30:53;6.50;99.90
40828;DHT22;26549;50.918;5.338;2022-11-20T07:33:19;6.60;99.90
40828;DHT22;26549;50.918;5.338;2022-11-20T07:35:46;6.70;99.90
40828;DHT22;26549;50.918;5.338;2022-11-20T07:38:12;6.70;99.90
40828;DHT22;26549;50.918;5.338;2022-11-20T07:40:38;6.50;99.90
40828;DHT22;26549;50.918;5.338;2022-11-20T07:43:04;6.50;99.90
40828;DHT22;26549;50.918;5.338;2022-11-20T07:45:30;6.50;99.90
40828;DHT22;26549;50.918;5.338;2022-11-20T07:47:56;6.50;99.90
40828;DHT22;26549;50.918;5.338;2022-11-20T07:50:22;6.70;99.90
40828;DHT22;26549;50.918;5.338;2022-11-20T07:52:48;6.70;99.90
40828;DHT22;26549;50.918;5.338;2022-11-20T07:55:14;6.70;99.90
40828;DHT22;26549;50.918;5.338;2022-11-20T07:57:40;6.70;99.90
40828;DHT22;26549;50.918;5.338;2022-11-20T08:00:08;6.80;99.90
40828;DHT22;26549;50.918;5.338;2022-11-20T08:02:39;6.90;99.90
40828;DHT22;26549;50.918;5.338;2022-11-20T08:05:05;7.00;99.90
40828;DHT22;26549;50.918;5.338;2022-11-20T08:07:39;7.00;99.90
40828;DHT22;26549;50.918;5.338;2022-11-20T08:10:07;7.00;99.90
40828;DHT22;26549;50.918;5.338;2022-11-20T08:12:49;6.90;99.90
40828;DHT22;26549;50.918;5.338;2022-11-20T08:15:34;6.90;99.90
40828;DHT22;26549;50.918;5.338;2022-11-20T08:18:09;7.00;99.90
40828;DHT22;26549;50.918;5.338;2022-11-20T08:20:36;7.00;99.90
40828;DHT22;26549;50.918;5.338;2022-11-20T08:23:05;7.00;99.90
40828;DHT22;26549;50.918;5.338;2022-11-20T08:25:35;7.00;99.90
40828;DHT22;26549;50.918;5.338;2022-11-20T08:28:05;7.10;99.90
40828;DHT22;26549;50.918;5.338;2022-11-20T08:30:32;7.10;99.90
40828;DHT22;26549;50.918;5.338;2022-11-20T08:33:04;7.10;99.90
40828;DHT22;26549;50.918;5.338;2022-11-20T08:35:37;7.10;99.90
40828;DHT22;26549;50.918;5.338;2022-11-20T08:38:05;7.10;99.90
40828;DHT22;26549;50.918;5.338;2022-11-20T08:40:31;7.00;99.90
40828;DHT22;26549;50.918;5.338;2022-11-20T08:42:57;7.00;99.90
40828;DHT22;26549;50.918;5.338;2022-11-20T08:45:26;7.00;99.90
40828;DHT22;26549;50.918;5.338;2022-11-20T08:47:59;7.00;99.90
40828;DHT22;26549;50.918;5.338;2022-11-20T08:50:28;7.10;99.90
40828;DHT22;26549;50.918;5.338;2022-11-20T08:53:04;7.10;99.90
40828;DHT22;26549;50.918;5.338;2022-11-20T08:55:31;7.20;99.90
40828;DHT22;26549;50.918;5.338;2022-11-20T08:58:03;7.30;99.90
40828;DHT22;26549;50.918;5.338;2022-11-20T09:00:29;7.30;99.90
40828;DHT22;26549;50.918;5.338;2022-11-20T09:02:58;7.40;99.90
40828;DHT22;26549;50.918;5.338;2022-11-20T09:05:24;7.40;99.90
40828;DHT22;26549;50.918;5.338;2022-11-20T09:07:51;7.70;99.90
40828;DHT22;26549;50.918;5.338;2022-11-20T09:10:19;7.50;99.90
40828;DHT22;26549;50.918;5.338;2022-11-20T09:12:48;7.60;99.90
40828;DHT22;26549;50.918;5.338;2022-11-20T09:15:14;7.50;99.90
40828;DHT22;26549;50.918;5.338;2022-11-20T09:17:41;7.50;99.90
40828;DHT22;26549;50.918;5.338;2022-11-20T09:20:07;7.50;99.90
40828;DHT22;26549;50.918;5.338;2022-11-20T09:22:35;7.50;99.90
40828;DHT22;26549;50.918;5.338;2022-11-20T09:25:04;7.60;99.90
40828;DHT22;26549;50.918;5.338;2022-11-20T09:27:29;7.60;99.90
40828;DHT22;26549;50.918;5.338;2022-11-20T09:29:57;7.80;99.90
40828;DHT22;26549;50.918;5.338;2022-11-20T09:32:23;7.70;99.90
40828;DHT22;26549;50.918;5.338;2022-11-20T09:34:49;7.70;99.90
40828;DHT22;26549;50.918;5.338;2022-11-20T09:37:16;7.60;99.90
40828;DHT22;26549;50.918;5.338;2022-11-20T09:39:43;7.60;99.90
40828;DHT22;26549;50.918;5.338;2022-11-20T09:47:59;7.80;99.90
40828;DHT22;26549;50.918;5.338;2022-11-20T09:53:42;7.90;99.90
40828;DHT22;26549;50.918;5.338;2022-11-20T09:56:14;8.00;99.90
40828;DHT22;26549;50.918;5.338;2022-11-20T09:58:47;8.00;99.90
40828;DHT22;26549;50.918;5.338;2022-11-20T10:01:25;8.10;99.90
40828;DHT22;26549;50.918;5.338;2022-11-20T10:03:57;8.20;99.90
40828;DHT22;26549;50.918;5.338;2022-11-20T10:06:37;8.00;99.90
40828;DHT22;26549;50.918;5.338;2022-11-20T10:09:21;7.90;99.90
40828;DHT22;26549;50.918;5.338;2022-11-20T10:20:03;8.00;99.90
40828;DHT22;26549;50.918;5.338;2022-11-20T10:26:03;8.10;99.90
40828;DHT22;26549;50.918;5.338;2022-11-20T10:29:07;8.20;99.90
40828;DHT22;26549;50.918;5.338;2022-11-20T10:31:44;8.30;99.90
40828;DHT22;26549;50.918;5.338;2022-11-20T10:34:32;8.20;99.90
40828;DHT22;26549;50.918;5.338;2022-11-20T10:37:17;8.30;99.90
40828;DHT22;26549;50.918;5.338;2022-11-20T10:42:51;8.40;99.90
40828;DHT22;26549;50.918;5.338;2022-11-20T10:50:49;8.50;99.90
40828;DHT22;26549;50.918;5.338;2022-11-20T10:56:42;8.70;99.90
40828;DHT22;26549;50.918;5.338;2022-11-20T11:02:22;8.60;99.90
40828;DHT22;26549;50.918;5.338;2022-11-20T11:04:53;8.60;99.90
40828;DHT22;26549;50.918;5.338;2022-11-20T11:07:35;8.70;99.90
40828;DHT22;26549;50.918;5.338;2022-11-20T11:12:48;8.90;99.90
40828;DHT22;26549;50.918;5.338;2022-11-20T11:15:38;9.00;99.90
40828;DHT22;26549;50.918;5.338;2022-11-20T11:18:08;9.00;99.90
40828;DHT22;26549;50.918;5.338;2022-11-20T11:20:34;9.00;99.90
40828;DHT22;26549;50.918;5.338;2022-11-20T11:23:43;9.00;99.90
40828;DHT22;26549;50.918;5.338;2022-11-20T11:26:24;9.10;99.90
40828;DHT22;26549;50.918;5.338;2022-11-20T11:29:02;9.10;99.90
40828;DHT22;26549;50.918;5.338;2022-11-20T11:31:32;9.20;99.90
40828;DHT22;26549;50.918;5.338;2022-11-20T11:34:08;9.30;99.90
40828;DHT22;26549;50.918;5.338;2022-11-20T11:36:40;9.40;99.90
40828;DHT22;26549;50.918;5.338;2022-11-20T11:39:15;9.40;99.90
40828;DHT22;26549;50.918;5.338;2022-11-20T11:41:41;9.40;99.90
40828;DHT22;26549;50.918;5.338;2022-11-20T11:44:20;9.60;99.90
40828;DHT22;26549;50.918;5.338;2022-11-20T11:47:43;9.60;99.90
40828;DHT22;26549;50.918;5.338;2022-11-20T12:00:33;9.80;99.90
40828;DHT22;26549;50.918;5.338;2022-11-20T12:06:14;9.80;99.90
40828;DHT22;26549;50.918;5.338;2022-11-20T12:14:14;10.10;99.90
40828;DHT22;26549;50.918;5.338;2022-11-20T12:16:42;10.20;99.90
40828;DHT22;26549;50.918;5.338;2022-11-20T12:19:13;10.40;99.90
40828;DHT22;26549;50.918;5.338;2022-11-20T12:22:02;10.40;99.90
40828;DHT22;26549;50.918;5.338;2022-11-20T12:24:42;10.60;99.90
40828;DHT22;26549;50.918;5.338;2022-11-20T12:30:11;10.70;99.90
40828;DHT22;26549;50.918;5.338;2022-11-20T12:40:44;10.80;99.90
40828;DHT22;26549;50.918;5.338;2022-11-20T12:43:30;10.70;99.90
40828;DHT22;26549;50.918;5.338;2022-11-20T12:52:06;10.80;99.90
40828;DHT22;26549;50.918;5.338;2022-11-20T13:00:27;11.00;99.90
40828;DHT22;26549;50.918;5.338;2022-11-20T13:03:06;11.00;99.90
40828;DHT22;26549;50.918;5.338;2022-11-20T13:08:23;10.90;99.90
40828;DHT22;26549;50.918;5.338;2022-11-20T13:13:43;10.90;99.90
40828;DHT22;26549;50.918;5.338;2022-11-20T13:18:42;10.90;99.90
40828;DHT22;26549;50.918;5.338;2022-11-20T13:21:19;10.80;99.90
40828;DHT22;26549;50.918;5.338;2022-11-20T13:23:46;10.80;99.90
40828;DHT22;26549;50.918;5.338;2022-11-20T13:26:22;10.70;99.90
40828;DHT22;26549;50.918;5.338;2022-11-20T13:29:17;10.70;99.90
40828;DHT22;26549;50.918;5.338;2022-11-20T13:31:45;10.50;99.90
40828;DHT22;26549;50.918;5.338;2022-11-20T13:34:21;10.60;99.90
40828;DHT22;26549;50.918;5.338;2022-11-20T13:36:50;10.50;99.90
40828;DHT22;26549;50.918;5.338;2022-11-20T13:39:34;10.30;99.90
40828;DHT22;26549;50.918;5.338;2022-11-20T13:42:21;10.30;99.90
40828;DHT22;26549;50.918;5.338;2022-11-20T13:44:54;10.20;99.90
40828;DHT22;26549;50.918;5.338;2022-11-20T13:47:26;10.20;99.90
40828;DHT22;26549;50.918;5.338;2022-11-20T13:49:54;10.10;99.90
40828;DHT22;26549;50.918;5.338;2022-11-20T14:00:29;10.00;99.90
40828;DHT22;26549;50.918;5.338;2022-11-20T14:05:39;9.90;99.90
40828;DHT22;26549;50.918;5.338;2022-11-20T14:08:13;9.90;99.90
40828;DHT22;26549;50.918;5.338;2022-11-20T14:10:41;9.80;99.90
40828;DHT22;26549;50.918;5.338;2022-11-20T14:13:15;9.90;99.90
40828;DHT22;26549;50.918;5.338;2022-11-20T14:15:43;9.90;99.90
40828;DHT22;26549;50.918;5.338;2022-11-20T14:18:20;9.70;99.90
40828;DHT22;26549;50.918;5.338;2022-11-20T14:20:47;9.70;99.90
40828;DHT22;26549;50.918;5.338;2022-11-20T14:23:24;9.70;99.90
40828;DHT22;26549;50.918;5.338;2022-11-20T14:25:50;9.70;99.90
40828;DHT22;26549;50.918;5.338;2022-11-20T14:28:27;9.60;99.90
40828;DHT22;26549;50.918;5.338;2022-11-20T14:30:54;9.40;99.90
40828;DHT22;26549;50.918;5.338;2022-11-20T14:33:21;9.50;99.90
40828;DHT22;26549;50.918;5.338;2022-11-20T14:35:52;9.40;99.90
40828;DHT22;26549;50.918;5.338;2022-11-20T14:38:22;9.30;99.90
40828;DHT22;26549;50.918;5.338;2022-11-20T14:40:49;9.30;99.90
40828;DHT22;26549;50.918;5.338;2022-11-20T14:43:22;9.30;99.90
40828;DHT22;26549;50.918;5.338;2022-11-20T14:45:58;9.30;99.90
40828;DHT22;26549;50.918;5.338;2022-11-20T14:48:35;9.30;99.90
40828;DHT22;26549;50.918;5.338;2022-11-20T14:51:03;9.30;99.90
40828;DHT22;26549;50.918;5.338;2022-11-20T14:53:29;9.20;99.90
40828;DHT22;26549;50.918;5.338;2022-11-20T14:56:00;9.30;99.90
40828;DHT22;26549;50.918;5.338;2022-11-20T14:58:29;9.40;99.90
40828;DHT22;26549;50.918;5.338;2022-11-20T15:01:00;9.20;99.90
40828;DHT22;26549;50.918;5.338;2022-11-20T15:03:34;9.30;99.90
40828;DHT22;26549;50.918;5.338;2022-11-20T15:06:00;9.30;99.90
40828;DHT22;26549;50.918;5.338;2022-11-20T15:08:26;9.30;99.90
40828;DHT22;26549;50.918;5.338;2022-11-20T15:10:53;9.20;99.90
40828;DHT22;26549;50.918;5.338;2022-11-20T15:13:33;9.30;99.90
40828;DHT22;26549;50.918;5.338;2022-11-20T15:16:01;9.30;99.90
40828;DHT22;26549;50.918;5.338;2022-11-20T15:18:38;9.30;99.90
40828;DHT22;26549;50.918;5.338;2022-11-20T15:21:11;9.40;99.90
40828;DHT22;26549;50.918;5.338;2022-11-20T15:23:37;9.40;99.90
40828;DHT22;26549;50.918;5.338;2022-11-20T15:26:07;9.30;99.90
40828;DHT22;26549;50.918;5.338;2022-11-20T15:28:40;9.30;99.90
40828;DHT22;26549;50.918;5.338;2022-11-20T15:31:09;9.30;99.90
40828;DHT22;26549;50.918;5.338;2022-11-20T15:33:37;9.20;99.90
40828;DHT22;26549;50.918;5.338;2022-11-20T15:36:03;9.20;99.90
40828;DHT22;26549;50.918;5.338;2022-11-20T15:38:29;9.30;99.90
40828;DHT22;26549;50.918;5.338;2022-11-20T15:40:55;9.30;99.90
40828;DHT22;26549;50.918;5.338;2022-11-20T15:43:21;9.40;99.90
40828;DHT22;26549;50.918;5.338;2022-11-20T15:46:14;9.30;99.90
40828;DHT22;26549;50.918;5.338;2022-11-20T15:48:51;9.30;99.90
40828;DHT22;26549;50.918;5.338;2022-11-20T15:51:34;9.40;99.90
40828;DHT22;26549;50.918;5.338;2022-11-20T15:54:01;9.40;99.90
40828;DHT22;26549;50.918;5.338;2022-11-20T15:56:34;9.40;99.90
40828;DHT22;26549;50.918;5.338;2022-11-20T15:59:01;9.50;99.90
40828;DHT22;26549;50.918;5.338;2022-11-20T16:01:26;9.60;99.90
40828;DHT22;26549;50.918;5.338;2022-11-20T16:03:52;9.60;99.90
40828;DHT22;26549;50.918;5.338;2022-11-20T16:06:18;9.60;99.90
40828;DHT22;26549;50.918;5.338;2022-11-20T16:08:43;9.60;99.90
40828;DHT22;26549;50.918;5.338;2022-11-20T16:11:13;9.60;99.90
40828;DHT22;26549;50.918;5.338;2022-11-20T16:13:40;9.60;99.90
40828;DHT22;26549;50.918;5.338;2022-11-20T16:16:33;9.50;99.90
40828;DHT22;26549;50.918;5.338;2022-11-20T16:18:59;9.70;99.90
40828;DHT22;26549;50.918;5.338;2022-11-20T16:21:26;9.80;99.90
40828;DHT22;26549;50.918;5.338;2022-11-20T16:24:05;9.80;99.90
40828;DHT22;26549;50.918;5.338;2022-11-20T16:26:32;9.70;99.90
40828;DHT22;26549;50.918;5.338;2022-11-20T16:29:02;9.60;99.90
40828;DHT22;26549;50.918;5.338;2022-11-20T16:31:29;9.60;99.90
40828;DHT22;26549;50.918;5.338;2022-11-20T16:33:57;9.60;99.90
40828;DHT22;26549;50.918;5.338;2022-11-20T16:36:24;9.70;99.90
40828;DHT22;26549;50.918;5.338;2022-11-20T16:39:02;9.90;99.90
40828;DHT22;26549;50.918;5.338;2022-11-20T16:41:32;9.80;99.90
40828;DHT22;26549;50.918;5.338;2022-11-20T16:44:00;9.80;99.90
40828;DHT22;26549;50.918;5.338;2022-11-20T16:46:31;9.80;99.90
40828;DHT22;26549;50.918;5.338;2022-11-20T16:49:02;9.80;99.90
40828;DHT22;26549;50.918;5.338;2022-11-20T16:51:38;10.00;99.90
40828;DHT22;26549;50.918;5.338;2022-11-20T16:54:06;9.80;99.90
40828;DHT22;26549;50.918;5.338;2022-11-20T16:56:38;9.90;99.90
40828;DHT22;26549;50.918;5.338;2022-11-20T16:59:04;9.80;99.90
40828;DHT22;26549;50.918;5.338;2022-11-20T17:01:38;9.90;99.90
40828;DHT22;26549;50.918;5.338;2022-11-20T17:04:11;9.80;99.90
40828;DHT22;26549;50.918;5.338;2022-11-20T17:06:41;9.90;99.90
40828;DHT22;26549;50.918;5.338;2022-11-20T17:09:32;9.90;99.90
40828;DHT22;26549;50.918;5.338;2022-11-20T17:11:58;10.00;99.90
40828;DHT22;26549;50.918;5.338;2022-11-20T17:14:24;10.00;99.90
40828;DHT22;26549;50.918;5.338;2022-11-20T17:16:51;10.00;99.90
40828;DHT22;26549;50.918;5.338;2022-11-20T17:19:17;9.90;99.90
40828;DHT22;26549;50.918;5.338;2022-11-20T17:21:43;9.90;99.90
40828;DHT22;26549;50.918;5.338;2022-11-20T17:24:12;10.00;99.90
40828;DHT22;26549;50.918;5.338;2022-11-20T17:26:39;9.90;99.90
40828;DHT22;26549;50.918;5.338;2022-11-20T17:29:07;9.80;99.90
40828;DHT22;26549;50.918;5.338;2022-11-20T17:31:35;9.70;99.90
40828;DHT22;26549;50.918;5.338;2022-11-20T17:34:03;9.80;99.90
40828;DHT22;26549;50.918;5.338;2022-11-20T17:36:31;9.80;99.90
40828;DHT22;26549;50.918;5.338;2022-11-20T17:38:57;9.60;99.90
40828;DHT22;26549;50.918;5.338;2022-11-20T17:41:25;9.70;99.90
40828;DHT22;26549;50.918;5.338;2022-11-20T17:43:56;9.60;99.90
40828;DHT22;26549;50.918;5.338;2022-11-20T17:46:24;9.70;99.90